createdAt,value
2018-12-07T00:01:28.551Z,8.13
2018-12-07T00:03:55.991Z,9.53
2018-12-07T00:06:27.515Z,8.93
2018-12-07T00:08:55.535Z,7.73
2018-12-07T00:11:23.053Z,9.60
2018-12-07T00:13:50.505Z,9.50
2018-12-07T00:16:17.981Z,8.30
2018-12-07T00:18:45.455Z,7.37
2018-12-07T00:21:12.884Z,10.13
2018-12-07T00:23:40.355Z,6.73
2018-12-07T00:26:12.692Z,7.20
2018-12-07T00:28:40.184Z,7.93
2018-12-07T00:31:07.615Z,7.10
2018-12-07T00:33:35.072Z,6.13
2018-12-07T00:36:02.513Z,5.87
2018-12-07T00:38:30.046Z,5.43
2018-12-07T00:41:02.378Z,5.43
2018-12-07T00:43:29.826Z,7.50
2018-12-07T00:45:57.452Z,6.13
2018-12-07T00:48:24.948Z,6.47
2018-12-07T00:50:52.381Z,6.77
2018-12-07T00:53:19.870Z,8.47
2018-12-07T00:55:47.299Z,5.43
2018-12-07T00:58:14.788Z,6.07
2018-12-07T01:00:42.225Z,5.13
2018-12-07T01:03:09.726Z,5.97
2018-12-07T01:05:42.117Z,7.80
2018-12-07T01:08:14.404Z,6.10
2018-12-07T01:10:41.853Z,5.17
2018-12-07T01:13:27.275Z,5.83
2018-12-07T01:15:54.718Z,5.50
2018-12-07T01:18:24.005Z,6.40
2018-12-07T01:20:51.449Z,5.70
2018-12-07T01:23:18.878Z,8.03
2018-12-07T01:25:49.250Z,6.60
2018-12-07T01:28:16.667Z,5.67
2018-12-07T01:30:44.115Z,7.07
2018-12-07T01:33:11.550Z,5.33
2018-12-07T01:35:38.992Z,5.30
2018-12-07T01:38:06.428Z,5.47
2018-12-07T01:40:33.888Z,6.03
2018-12-07T01:43:01.337Z,7.70
2018-12-07T01:45:28.805Z,4.80
2018-12-07T01:47:56.236Z,6.67
2018-12-07T01:50:26.533Z,8.03
2018-12-07T01:52:53.960Z,7.23
2018-12-07T01:55:21.442Z,5.10
2018-12-07T01:57:48.876Z,5.10
2018-12-07T02:00:16.289Z,5.37
2018-12-07T02:02:43.730Z,6.70
2018-12-07T02:05:11.160Z,7.00
2018-12-07T02:07:38.595Z,8.23
2018-12-07T02:10:07.097Z,4.90
2018-12-07T02:12:34.903Z,4.87
2018-12-07T02:15:02.327Z,7.67
2018-12-07T02:17:31.624Z,4.70
2018-12-07T02:19:59.053Z,7.63
2018-12-07T02:22:30.446Z,7.70
2018-12-07T02:24:59.898Z,6.73
2018-12-07T02:27:27.423Z,6.23
2018-12-07T02:29:58.879Z,4.97
2018-12-07T02:32:26.340Z,5.67
2018-12-07T02:34:56.698Z,5.13
2018-12-07T02:37:24.133Z,6.20
2018-12-07T02:39:51.570Z,5.23
2018-12-07T02:42:19.090Z,6.33
2018-12-07T02:44:46.541Z,5.73
2018-12-07T02:47:22.836Z,5.40
2018-12-07T02:49:50.284Z,5.43
2018-12-07T02:52:17.765Z,4.63
2018-12-07T02:54:48.264Z,4.07
2018-12-07T02:57:15.781Z,6.20
2018-12-07T02:59:43.232Z,3.30
2018-12-07T03:02:10.668Z,6.17
2018-12-07T03:04:41.039Z,5.17
2018-12-07T03:07:08.577Z,3.50
2018-12-07T03:09:36.019Z,4.80
2018-12-07T03:12:08.493Z,7.33
2018-12-07T03:14:35.970Z,4.33
2018-12-07T03:17:04.260Z,5.13
2018-12-07T03:19:31.690Z,3.10
2018-12-07T03:21:59.141Z,5.10
2018-12-07T03:24:26.622Z,5.43
2018-12-07T03:26:57.980Z,3.50
2018-12-07T03:29:25.426Z,5.00
2018-12-07T03:31:53.036Z,5.53
2018-12-07T03:34:23.120Z,5.20
2018-12-07T03:36:50.540Z,6.57
2018-12-07T03:39:18.019Z,3.93
2018-12-07T03:41:45.480Z,4.17
2018-12-07T03:44:12.945Z,5.30
2018-12-07T03:46:40.534Z,6.67
2018-12-07T03:49:07.982Z,3.77
2018-12-07T03:51:35.436Z,4.50
2018-12-07T03:54:02.865Z,8.07
2018-12-07T03:56:30.300Z,4.70
2018-12-07T03:58:57.773Z,3.87
2018-12-07T04:01:25.233Z,4.40
2018-12-07T04:03:52.678Z,4.00
2018-12-07T04:06:20.135Z,6.47
2018-12-07T04:08:47.570Z,10.17
2018-12-07T04:11:17.968Z,5.07
2018-12-07T04:13:45.396Z,7.77
2018-12-07T04:16:12.907Z,6.60
2018-12-07T04:18:40.357Z,6.10
2018-12-07T04:21:07.915Z,5.40
2018-12-07T04:23:35.348Z,6.90
2018-12-07T04:26:02.835Z,5.60
2018-12-07T04:28:30.394Z,5.90
2018-12-07T04:30:57.915Z,5.93
2018-12-07T04:33:25.368Z,5.87
2018-12-07T04:35:52.868Z,8.90
2018-12-07T04:38:20.311Z,6.83
2018-12-07T04:40:47.745Z,7.07
2018-12-07T04:46:09.412Z,5.77
2018-12-07T04:48:36.862Z,5.80
2018-12-07T04:51:04.353Z,7.37
2018-12-07T04:53:32.254Z,8.67
2018-12-07T04:55:59.676Z,6.07
2018-12-07T04:58:27.135Z,6.47
2018-12-07T05:00:54.578Z,6.43
2018-12-07T05:03:22.031Z,6.60
2018-12-07T05:05:53.549Z,5.97
2018-12-07T05:08:20.965Z,5.90
2018-12-07T05:10:48.515Z,5.20
2018-12-07T05:13:16.015Z,6.27
2018-12-07T05:15:43.467Z,5.87
2018-12-07T05:18:10.926Z,4.37
2018-12-07T05:20:38.403Z,4.87
2018-12-07T05:23:05.834Z,5.60
2018-12-07T05:25:33.481Z,4.93
2018-12-07T05:28:00.893Z,5.70
2018-12-07T05:30:28.607Z,4.13
2018-12-07T05:32:56.231Z,5.70
2018-12-07T05:35:23.688Z,5.07
2018-12-07T05:37:51.143Z,4.77
2018-12-07T05:40:25.378Z,6.07
2018-12-07T05:42:52.884Z,5.40
2018-12-07T05:45:20.341Z,5.03
2018-12-07T05:47:47.766Z,4.97
2018-12-07T05:50:20.111Z,5.20
2018-12-07T05:52:47.544Z,7.10
2018-12-07T05:55:15.002Z,6.03
2018-12-07T05:57:42.459Z,5.73
2018-12-07T06:00:09.979Z,6.20
2018-12-07T06:02:41.386Z,5.47
2018-12-07T06:05:08.835Z,5.27
2018-12-07T06:07:43.280Z,7.20
2018-12-07T06:10:10.783Z,7.13
2018-12-07T06:12:38.240Z,7.30
2018-12-07T06:15:06.058Z,6.37
2018-12-07T06:17:33.515Z,6.53
2018-12-07T06:20:00.956Z,5.00
2018-12-07T06:22:33.461Z,5.83
2018-12-07T06:25:00.888Z,5.70
2018-12-07T06:27:28.359Z,6.20
2018-12-07T06:29:55.809Z,5.23
2018-12-07T06:32:23.422Z,5.73
2018-12-07T06:34:54.920Z,5.13
2018-12-07T06:37:22.380Z,4.87
2018-12-07T06:39:49.779Z,6.23
2018-12-07T06:42:17.235Z,6.83
2018-12-07T06:44:44.760Z,5.47
2018-12-07T06:47:12.991Z,6.57
2018-12-07T06:49:40.489Z,26.70
2018-12-07T06:52:08.010Z,17.53
2018-12-07T06:54:36.532Z,6.87
2018-12-07T06:57:05.734Z,7.83
2018-12-07T06:59:33.195Z,6.47
2018-12-07T07:02:05.580Z,5.70
2018-12-07T07:04:33.027Z,5.77
2018-12-07T07:07:00.456Z,7.13
2018-12-07T07:09:27.934Z,5.40
2018-12-07T07:11:58.219Z,5.73
2018-12-07T07:14:25.669Z,4.77
2018-12-07T07:16:53.106Z,9.17
2018-12-07T07:22:16.532Z,5.40
2018-12-07T07:24:46.943Z,7.93
2018-12-07T07:27:14.414Z,6.43
2018-12-07T07:29:42.019Z,6.53
2018-12-07T07:32:09.621Z,7.93
2018-12-07T07:34:37.069Z,8.23
2018-12-07T07:37:04.782Z,5.53
2018-12-07T07:39:32.240Z,5.20
2018-12-07T07:41:59.693Z,6.70
2018-12-07T07:44:27.154Z,5.17
2018-12-07T07:46:55.276Z,6.17
2018-12-07T07:49:22.745Z,4.03
2018-12-07T07:51:50.287Z,7.60
2018-12-07T07:54:33.724Z,4.77
2018-12-07T07:57:01.175Z,4.93
2018-12-07T07:59:28.602Z,5.27
2018-12-07T08:01:59.918Z,5.00
2018-12-07T08:04:27.403Z,6.03
2018-12-07T08:06:54.917Z,4.43
2018-12-07T08:09:22.348Z,3.23
2018-12-07T08:11:51.732Z,3.30
2018-12-07T08:14:19.163Z,4.90
2018-12-07T08:16:46.666Z,2.83
2018-12-07T08:19:14.095Z,3.90
2018-12-07T08:21:41.589Z,4.83
2018-12-07T08:24:09.082Z,3.73
2018-12-07T08:26:36.630Z,2.50
2018-12-07T08:29:04.059Z,2.93
2018-12-07T08:31:31.479Z,4.50
2018-12-07T08:34:00.268Z,4.03
2018-12-07T08:39:22.553Z,4.70
2018-12-07T08:41:50.006Z,4.53
2018-12-07T08:44:18.423Z,4.67
2018-12-07T08:46:45.891Z,3.00
2018-12-07T08:49:15.395Z,9.03
2018-12-07T08:51:42.816Z,5.07
2018-12-07T08:54:14.108Z,3.27
2018-12-07T08:56:41.616Z,3.57
2018-12-07T08:59:14.227Z,7.40
2018-12-07T09:01:41.654Z,3.90
2018-12-07T09:04:13.156Z,3.20
2018-12-07T09:06:40.729Z,2.83
2018-12-07T09:09:08.222Z,3.07
2018-12-07T09:11:35.733Z,4.57
2018-12-07T09:14:03.206Z,2.50
2018-12-07T09:16:30.651Z,4.30
2018-12-07T09:19:14.966Z,3.43
2018-12-07T09:21:42.401Z,4.73
2018-12-07T09:24:10.036Z,2.87
2018-12-07T09:26:38.425Z,3.33
2018-12-07T09:29:05.919Z,3.70
2018-12-07T09:31:33.352Z,3.27
2018-12-07T09:36:34.909Z,2.87
2018-12-07T09:39:02.343Z,3.10
2018-12-07T09:41:29.833Z,3.60
2018-12-07T09:43:59.202Z,3.23
2018-12-07T09:46:26.777Z,2.10
2018-12-07T09:48:54.220Z,3.17
2018-12-07T09:51:21.688Z,3.50
2018-12-07T09:53:49.110Z,2.30
2018-12-07T09:56:16.642Z,2.10
2018-12-07T09:58:44.059Z,2.83
2018-12-07T10:01:11.514Z,3.17
2018-12-07T10:03:38.963Z,1.73
2018-12-07T10:06:06.383Z,2.40
2018-12-07T10:08:33.847Z,2.77
2018-12-07T10:11:01.276Z,2.63
2018-12-07T10:13:28.833Z,2.20
2018-12-07T10:15:56.276Z,2.83
2018-12-07T10:18:23.727Z,3.10
2018-12-07T10:20:51.136Z,2.57
2018-12-07T10:23:18.594Z,1.93
2018-12-07T10:25:46.054Z,1.33
2018-12-07T10:28:13.543Z,1.30
2018-12-07T10:30:45.107Z,1.83
2018-12-07T10:33:12.554Z,4.00
2018-12-07T10:35:39.991Z,2.00
2018-12-07T10:38:07.462Z,1.90
2018-12-07T10:40:34.901Z,2.93
2018-12-07T10:43:02.391Z,2.23
2018-12-07T10:45:29.862Z,1.20
2018-12-07T10:47:57.357Z,1.10
2018-12-07T10:50:29.703Z,0.83
2018-12-07T10:52:57.135Z,1.63
2018-12-07T10:55:24.568Z,0.80
2018-12-07T10:57:56.788Z,1.03
2018-12-07T11:00:29.953Z,1.97
2018-12-07T11:03:07.251Z,1.00
2018-12-07T11:05:47.587Z,2.23
2018-12-07T11:11:26.567Z,0.80
2018-12-07T11:13:59.675Z,1.10
2018-12-07T11:16:48.743Z,1.27
2018-12-07T11:19:21.827Z,0.70
2018-12-07T11:21:55.094Z,0.77
2018-12-07T11:27:35.344Z,0.70
2018-12-07T11:30:08.404Z,0.70
2018-12-07T11:32:37.826Z,1.47
2018-12-07T11:35:07.408Z,1.03
2018-12-07T11:37:34.869Z,1.57
2018-12-07T11:40:02.515Z,0.60
2018-12-07T11:42:29.950Z,0.77
2018-12-07T11:44:57.370Z,1.87
2018-12-07T11:47:25.654Z,0.93
2018-12-07T11:49:53.084Z,0.73
2018-12-07T11:52:20.591Z,1.70
2018-12-07T11:54:48.021Z,0.70
2018-12-07T11:57:15.491Z,1.57
2018-12-07T12:02:27.913Z,1.73
2018-12-07T12:04:55.411Z,0.60
2018-12-07T12:07:23.045Z,1.93
2018-12-07T12:09:50.497Z,0.60
2018-12-07T12:12:34.500Z,0.70
2018-12-07T12:15:01.938Z,0.50
2018-12-07T12:17:29.356Z,0.77
2018-12-07T12:19:56.783Z,0.57
2018-12-07T12:22:24.238Z,0.50
2018-12-07T12:24:54.701Z,1.27
2018-12-07T12:27:22.133Z,1.80
2018-12-07T12:29:53.736Z,1.43
2018-12-07T12:32:25.124Z,0.83
2018-12-07T12:34:52.572Z,1.20
2018-12-07T12:37:20.095Z,0.80
2018-12-07T12:39:47.543Z,2.37
2018-12-07T12:42:19.000Z,1.53
2018-12-07T12:44:46.601Z,1.13
2018-12-07T12:47:14.058Z,0.70
2018-12-07T12:49:41.491Z,1.40
2018-12-07T12:52:09.119Z,0.67
2018-12-07T12:54:36.532Z,0.83
2018-12-07T12:57:06.939Z,2.17
2018-12-07T12:59:37.399Z,0.77
2018-12-07T13:02:04.847Z,1.00
2018-12-07T13:04:32.303Z,0.60
2018-12-07T13:06:59.750Z,0.70
2018-12-07T13:09:27.188Z,0.93
2018-12-07T13:11:54.646Z,0.60
2018-12-07T13:14:22.130Z,2.07
2018-12-07T13:16:49.626Z,1.50
2018-12-07T13:19:17.037Z,1.73
2018-12-07T13:21:44.491Z,0.80
2018-12-07T13:24:11.944Z,0.73
2018-12-07T13:26:45.503Z,0.87
2018-12-07T13:29:12.988Z,1.47
2018-12-07T13:31:40.612Z,1.80
2018-12-07T13:34:08.065Z,1.77
2018-12-07T13:39:36.564Z,0.50
2018-12-07T13:42:04.092Z,1.37
2018-12-07T13:44:31.735Z,2.83
2018-12-07T13:46:59.487Z,1.57
2018-12-07T13:49:27.352Z,0.63
2018-12-07T13:51:55.310Z,0.70
2018-12-07T13:54:27.813Z,0.60
2018-12-07T13:56:55.501Z,0.50
2018-12-07T13:59:27.020Z,0.70
2018-12-07T14:01:54.606Z,0.93
2018-12-07T14:04:22.222Z,3.17
2018-12-07T14:06:59.381Z,2.23
2018-12-07T14:09:26.858Z,1.90
2018-12-07T14:11:56.490Z,2.90
2018-12-07T14:14:24.204Z,0.90
2018-12-07T14:16:51.900Z,1.53
2018-12-07T14:21:57.729Z,2.40
2018-12-07T14:24:25.391Z,0.93
2018-12-07T14:26:59.292Z,1.60
2018-12-07T14:29:22.519Z,2.70
2018-12-07T14:31:50.076Z,12.43
2018-12-07T14:34:17.592Z,3.70
2018-12-07T14:36:45.133Z,6.47
2018-12-07T14:39:12.857Z,1.17
2018-12-07T14:41:40.449Z,0.87
2018-12-07T14:44:07.907Z,1.43
2018-12-07T14:46:35.384Z,1.80
2018-12-07T14:49:03.242Z,1.53
2018-12-07T14:51:30.847Z,1.37
2018-12-07T14:53:58.480Z,1.57
2018-12-07T14:56:26.229Z,1.97
2018-12-07T14:58:53.846Z,1.53
2018-12-07T15:01:21.491Z,1.77
2018-12-07T15:03:49.128Z,2.30
2018-12-07T15:06:16.844Z,2.00
2018-12-07T15:08:44.451Z,1.93
2018-12-07T15:11:12.134Z,1.77
2018-12-07T15:13:39.885Z,3.80
2018-12-07T15:16:07.388Z,2.23
2018-12-07T15:18:34.991Z,2.53
2018-12-07T15:21:02.694Z,2.07
2018-12-07T15:23:30.339Z,3.53
2018-12-07T15:25:58.109Z,2.97
2018-12-07T15:28:25.795Z,1.67
2018-12-07T15:30:53.677Z,3.30
2018-12-07T15:33:21.482Z,3.57
2018-12-07T15:35:49.049Z,2.60
2018-12-07T15:38:16.789Z,1.70
2018-12-07T15:40:44.538Z,2.70
2018-12-07T15:43:12.266Z,3.10
2018-12-07T15:45:39.922Z,1.50
2018-12-07T15:48:07.610Z,1.57
2018-12-07T15:50:35.365Z,1.30
2018-12-07T15:53:03.058Z,0.93
2018-12-07T15:55:30.954Z,1.53
2018-12-07T15:57:58.530Z,3.60
2018-12-07T16:00:26.189Z,2.53
2018-12-07T16:02:53.835Z,0.80
2018-12-07T16:05:21.492Z,0.97
2018-12-07T16:07:48.983Z,1.60
2018-12-07T16:10:16.575Z,1.67
2018-12-07T16:12:44.535Z,1.57
2018-12-07T16:15:17.087Z,1.30
2018-12-07T16:17:44.682Z,1.63
2018-12-07T16:20:12.432Z,1.73
2018-12-07T16:22:40.065Z,1.60
2018-12-07T16:25:07.669Z,2.00
2018-12-07T16:27:35.534Z,0.80
2018-12-07T16:30:03.558Z,1.10
2018-12-07T16:32:31.199Z,0.80
2018-12-07T16:34:58.918Z,1.57
2018-12-07T16:37:26.670Z,1.10
2018-12-07T16:39:54.535Z,0.90
2018-12-07T16:42:22.243Z,1.10
2018-12-07T16:44:49.781Z,1.10
2018-12-07T16:47:17.298Z,2.10
2018-12-07T16:49:44.746Z,0.90
2018-12-07T16:52:12.297Z,1.20
2018-12-07T16:54:40.190Z,16.10
2018-12-07T16:57:07.731Z,3.07
2018-12-07T16:59:35.350Z,1.20
2018-12-07T17:02:03.041Z,1.87
2018-12-07T17:04:30.889Z,0.80
2018-12-07T17:06:58.377Z,1.83
2018-12-07T17:09:26.162Z,4.33
2018-12-07T17:11:53.918Z,1.90
2018-12-07T17:14:21.716Z,2.40
2018-12-07T17:16:49.391Z,1.63
2018-12-07T17:19:17.110Z,1.73
2018-12-07T17:21:44.620Z,9.93
2018-12-07T17:24:12.495Z,5.80
2018-12-07T17:26:40.064Z,2.53
2018-12-07T17:29:07.738Z,7.17
2018-12-07T17:31:35.395Z,1.70
2018-12-07T17:34:03.139Z,2.87
2018-12-07T17:36:30.830Z,1.83
2018-12-07T17:38:58.381Z,3.43
2018-12-07T17:41:25.995Z,2.27
2018-12-07T17:43:53.777Z,3.93
2018-12-07T17:46:21.475Z,1.67
2018-12-07T17:48:49.238Z,3.37
2018-12-07T17:51:17.082Z,2.33
2018-12-07T17:53:44.715Z,4.53
2018-12-07T17:56:12.430Z,3.63
2018-12-07T17:58:40.256Z,3.57
2018-12-07T18:01:07.771Z,3.23
2018-12-07T18:03:35.200Z,4.93
2018-12-07T18:06:02.717Z,5.83
2018-12-07T18:08:30.179Z,3.60
2018-12-07T18:10:57.599Z,7.47
2018-12-07T18:13:25.158Z,3.83
2018-12-07T18:15:52.754Z,5.17
2018-12-07T18:18:20.359Z,5.20
2018-12-07T18:20:47.938Z,6.10
2018-12-07T18:23:15.427Z,5.33
2018-12-07T18:25:42.962Z,6.20
2018-12-07T18:28:10.532Z,4.50
2018-12-07T18:30:38.016Z,4.40
2018-12-07T18:33:05.625Z,6.57
2018-12-07T18:35:33.283Z,3.70
2018-12-07T18:38:00.773Z,4.60
2018-12-07T18:40:28.256Z,3.87
2018-12-07T18:42:55.811Z,5.17
2018-12-07T18:45:23.350Z,7.47
2018-12-07T18:47:51.221Z,3.67
2018-12-07T18:50:18.899Z,5.80
2018-12-07T18:52:46.509Z,6.67
2018-12-07T18:55:14.152Z,7.67
2018-12-07T18:57:42.003Z,7.80
2018-12-07T19:00:09.875Z,7.07
2018-12-07T19:02:37.512Z,9.07
2018-12-07T19:05:05.447Z,5.33
2018-12-07T19:07:33.150Z,9.13
2018-12-07T19:10:00.776Z,8.97
2018-12-07T19:12:28.476Z,6.80
2018-12-07T19:14:56.132Z,10.43
2018-12-07T19:17:23.833Z,5.60
2018-12-07T19:19:51.445Z,6.77
2018-12-07T19:22:19.031Z,6.53
2018-12-07T19:24:46.699Z,11.57
2018-12-07T19:27:14.240Z,4.80
2018-12-07T19:29:42.372Z,9.30
2018-12-07T19:32:09.960Z,5.80
2018-12-07T19:34:37.456Z,7.13
2018-12-07T19:37:05.158Z,7.77
2018-12-07T19:39:32.734Z,7.73
2018-12-07T19:42:00.307Z,7.17
2018-12-07T19:44:28.281Z,6.60
2018-12-07T19:46:55.955Z,8.23
2018-12-07T19:49:23.598Z,10.80
2018-12-07T19:51:51.436Z,7.83
2018-12-07T19:54:19.097Z,6.60
2018-12-07T19:56:46.594Z,7.60
2018-12-07T19:59:14.188Z,8.57
2018-12-07T20:01:41.704Z,5.87
2018-12-07T20:04:09.254Z,7.87
2018-12-07T20:06:37.058Z,7.93
2018-12-07T20:09:06.312Z,9.37
2018-12-07T20:11:34.279Z,10.07
2018-12-07T20:14:02.244Z,11.73
2018-12-07T20:16:29.930Z,10.67
2018-12-07T20:18:57.913Z,12.67
2018-12-07T20:21:25.355Z,7.37
2018-12-07T20:23:52.821Z,7.53
2018-12-07T20:26:20.521Z,8.37
2018-12-07T20:28:48.395Z,11.87
2018-12-07T20:31:15.862Z,9.40
2018-12-07T20:33:43.433Z,7.10
2018-12-07T20:36:11.288Z,10.13
2018-12-07T20:38:38.876Z,6.97
2018-12-07T20:41:06.414Z,10.53
2018-12-07T20:43:33.845Z,8.73
2018-12-07T20:46:02.156Z,9.93
2018-12-07T20:48:30.190Z,11.43
2018-12-07T20:50:57.842Z,6.67
2018-12-07T20:53:25.471Z,9.00
2018-12-07T20:55:53.421Z,6.63
2018-12-07T20:58:21.226Z,8.40
2018-12-07T21:00:48.818Z,10.00
2018-12-07T21:03:16.394Z,8.10
2018-12-07T21:09:21.887Z,10.43
2018-12-07T21:11:53.339Z,10.47
2018-12-07T21:14:22.631Z,10.60
2018-12-07T21:17:15.761Z,7.87
2018-12-07T21:19:47.914Z,7.60
2018-12-07T21:22:15.424Z,5.20
2018-12-07T21:24:42.952Z,3.33
2018-12-07T21:27:10.694Z,6.70
2018-12-07T21:29:38.366Z,10.40
2018-12-07T21:32:09.178Z,6.17
2018-12-07T21:37:33.306Z,4.03
2018-12-07T21:40:11.334Z,6.57
2018-12-07T21:42:39.070Z,4.30
2018-12-07T21:45:06.975Z,2.57
2018-12-07T21:47:48.264Z,5.30
2018-12-07T21:50:16.737Z,7.30
2018-12-07T21:52:44.400Z,8.00
2018-12-07T21:55:12.238Z,7.20
2018-12-07T21:57:39.851Z,8.57
2018-12-07T22:00:07.463Z,9.17
2018-12-07T22:02:34.896Z,8.10
2018-12-07T22:05:02.673Z,8.73
2018-12-07T22:07:30.474Z,6.37
2018-12-07T22:09:58.034Z,7.20
2018-12-07T22:12:25.559Z,4.43
2018-12-07T22:14:53.562Z,6.63
2018-12-07T22:17:21.108Z,7.20
2018-12-07T22:19:48.585Z,8.63
2018-12-07T22:22:16.051Z,8.27
2018-12-07T22:24:43.557Z,6.20
2018-12-07T22:27:11.174Z,5.90
2018-12-07T22:29:38.925Z,9.23
2018-12-07T22:32:06.626Z,8.93
2018-12-07T22:34:34.571Z,9.03
2018-12-07T22:37:02.322Z,11.47
2018-12-07T22:39:30.165Z,8.20
2018-12-07T22:41:57.600Z,8.70
2018-12-07T22:44:25.158Z,12.67
2018-12-07T22:46:52.590Z,16.97
2018-12-07T22:49:19.991Z,10.57
2018-12-07T22:51:47.531Z,10.93
2018-12-07T22:54:15.001Z,15.73
2018-12-07T22:56:42.431Z,11.33
2018-12-07T22:59:09.872Z,11.73
2018-12-07T23:01:37.375Z,12.37
2018-12-07T23:04:04.904Z,15.83
2018-12-07T23:06:32.328Z,12.33
2018-12-07T23:08:59.821Z,16.17
2018-12-07T23:11:27.273Z,12.33
2018-12-07T23:13:54.774Z,14.10
2018-12-07T23:16:22.310Z,14.23
2018-12-07T23:18:49.826Z,10.47
2018-12-07T23:21:17.363Z,15.17
2018-12-07T23:23:44.771Z,13.37
2018-12-07T23:26:12.232Z,13.33
2018-12-07T23:28:39.677Z,12.33
2018-12-07T23:31:07.097Z,12.57
2018-12-07T23:33:34.527Z,10.83
2018-12-07T23:36:01.963Z,14.77
2018-12-07T23:38:29.420Z,10.97
2018-12-07T23:40:56.878Z,8.97
2018-12-07T23:43:24.358Z,9.43
2018-12-07T23:45:51.907Z,13.80
2018-12-07T23:48:19.362Z,14.13
2018-12-07T23:50:46.787Z,13.03
2018-12-07T23:53:14.275Z,11.50
2018-12-07T23:55:41.732Z,17.33
2018-12-07T23:58:09.301Z,9.90
